Time;durP1;ratioP1;P1;durP2;ratioP2;P2;SDS_P1;SDS_P2;PMS_P1;PMS_P2;Temp;Humidity;BMP_temperature;BMP_pressure;BME280_temperature;BME280_humidity;BME280_pressure;Samples;Min_cycle;Max_cycle;Signal;HPM_P1;HPM_P2
2021/06/30 01:26:57;;;;;;;20.87;16.50;;;20.70;98.30;;;;;;4888784;24;20484;-86
2021/06/30 04:35:06;;;;;;;37.57;29.93;;;20.80;98.30;;;;;;4365305;22;17886309;-85
2021/06/30 05:23:45;;;;;;;43.50;33.70;;;21.20;98.30;;;;;;5099702;23;20402;-82
2021/06/30 05:26:35;;;;;;;40.23;32.13;;;21.20;98.30;;;;;;5100013;23;20923;-82
2021/06/30 05:38:17;;;;;;;45.47;32.63;;;21.20;98.30;;;;;;5038617;23;20419;-82
2021/06/30 05:44:32;;;;;;;50.30;36.67;;;21.30;98.30;;;;;;5017325;23;20509;-82
2021/06/30 05:47:04;;;;;;;44.83;34.17;;;21.20;98.30;;;;;;5025449;23;20466;-82
2021/06/30 05:56:12;;;;;;;45.00;32.77;;;21.10;98.30;;;;;;5009775;23;20418;-82
2021/06/30 06:08:30;;;;;;;49.10;33.80;;;21.50;98.30;;;;;;4955049;24;20468;-82
2021/06/30 06:14:01;;;;;;;44.37;33.40;;;21.60;98.30;;;;;;4886226;23;20512;-83
2021/06/30 07:00:43;;;;;;;40.20;31.83;;;21.20;98.30;;;;;;5088389;23;20515;-79
2021/06/30 07:02:51;;;;;;;37.50;29.83;;;21.10;98.30;;;;;;5090058;23;20410;-80
2021/06/30 07:04:59;;;;;;;37.77;30.67;;;21.10;98.30;;;;;;5091068;23;20417;-80
2021/06/30 07:07:07;;;;;;;36.20;29.70;;;21.10;98.30;;;;;;5091154;23;20432;-80
2021/06/30 07:09:15;;;;;;;34.90;28.90;;;21.10;98.30;;;;;;5091131;23;20939;-79
2021/06/30 07:11:18;;;;;;;33.57;28.70;;;21.00;98.30;;;;;;5099559;23;20460;-79
2021/06/30 07:24:52;;;;;;;36.80;28.30;;;21.10;98.30;;;;;;5083752;23;20502;-78
2021/06/30 07:27:01;;;;;;;34.63;28.57;;;21.20;98.30;;;;;;5089219;23;21008;-78
2021/06/30 07:29:09;;;;;;;41.70;31.20;;;21.20;98.30;;;;;;5089042;23;20518;-78
2021/06/30 07:31:17;;;;;;;33.57;27.27;;;21.30;98.30;;;;;;5089451;23;20436;-78
2021/06/30 07:33:25;;;;;;;34.93;27.40;;;21.40;98.30;;;;;;5089586;23;20521;-79
2021/06/30 07:35:33;;;;;;;60.63;43.07;;;21.20;98.30;;;;;;5089630;23;20494;-78
2021/06/30 07:37:41;;;;;;;60.23;48.60;;;21.20;98.30;;;;;;5089733;23;20930;-78
2021/06/30 07:39:44;;;;;;;65.10;52.77;;;21.20;98.30;;;;;;5097627;23;20939;-78
2021/06/30 07:41:54;;;;;;;39.33;33.23;;;21.10;98.30;;;;;;5089807;23;20414;-78
2021/06/30 07:44:03;;;;;;;35.63;28.80;;;21.20;98.30;;;;;;5089643;23;20481;-78
2021/06/30 07:46:06;;;;;;;38.60;30.97;;;21.40;98.30;;;;;;5089605;23;20424;-79
2021/06/30 07:48:09;;;;;;;31.47;26.37;;;21.50;98.30;;;;;;5088892;23;20435;-78
2021/06/30 07:50:12;;;;;;;35.97;29.80;;;21.30;98.30;;;;;;5089565;23;20447;-78
2021/06/30 07:52:15;;;;;;;35.60;29.97;;;21.20;98.30;;;;;;5089115;23;20435;-78
2021/06/30 07:54:18;;;;;;;40.87;30.87;;;20.90;98.30;;;;;;5088830;23;20478;-78
2021/06/30 07:56:33;;;;;;;36.90;30.50;;;20.80;98.30;;;;;;5089099;23;20447;-78
2021/06/30 07:58:42;;;;;;;41.03;32.73;;;20.80;98.30;;;;;;5089170;23;20725;-78
2021/06/30 08:00:45;;;;;;;38.13;30.70;;;20.70;98.30;;;;;;5089197;23;20437;-78
2021/06/30 08:02:48;;;;;;;36.63;30.40;;;20.70;98.30;;;;;;5089546;23;20437;-78
2021/06/30 08:04:51;;;;;;;46.63;34.23;;;20.70;98.30;;;;;;5089188;23;20521;-78
2021/06/30 08:06:54;;;;;;;34.63;27.73;;;20.80;98.30;;;;;;5089386;23;20439;-78
2021/06/30 08:08:59;;;;;;;37.33;30.33;;;20.80;98.30;;;;;;5088942;23;20437;-78
2021/06/30 08:11:02;;;;;;;37.50;32.17;;;20.80;98.30;;;;;;5097424;23;20407;-78
2021/06/30 08:13:05;;;;;;;43.50;32.10;;;20.70;98.30;;;;;;5089110;23;20447;-78
2021/06/30 08:15:11;;;;;;;40.53;32.10;;;20.70;98.30;;;;;;5089429;23;20438;-78
2021/06/30 08:17:14;;;;;;;40.20;32.70;;;20.80;98.30;;;;;;5091018;23;20437;-78
2021/06/30 08:19:17;;;;;;;44.30;36.00;;;20.90;98.30;;;;;;5090288;23;20466;-78
2021/06/30 08:21:21;;;;;;;41.87;33.10;;;20.90;98.30;;;;;;5090953;23;20793;-78
2021/06/30 08:23:23;;;;;;;37.37;30.23;;;20.90;98.30;;;;;;5090791;23;20473;-79
2021/06/30 08:25:27;;;;;;;44.93;35.43;;;20.90;98.30;;;;;;5090356;23;20419;-79
2021/06/30 08:27:29;;;;;;;42.20;35.30;;;20.70;98.30;;;;;;5091360;23;20434;-78
2021/06/30 08:29:33;;;;;;;71.53;55.70;;;20.70;98.30;;;;;;5091217;23;20498;-79
2021/06/30 08:31:37;;;;;;;48.67;36.70;;;20.70;98.30;;;;;;5091401;23;20533;-78
2021/06/30 08:33:40;;;;;;;43.07;34.40;;;20.70;98.30;;;;;;5091228;23;20458;-78
2021/06/30 08:35:43;;;;;;;36.13;30.37;;;20.80;98.30;;;;;;5091578;23;20920;-78
2021/06/30 08:37:47;;;;;;;44.57;31.77;;;20.70;98.30;;;;;;5091157;23;20431;-78
2021/06/30 08:39:51;;;;;;;51.90;38.73;;;20.60;98.30;;;;;;5090898;23;20427;-79
2021/06/30 08:41:57;;;;;;;47.17;37.50;;;20.50;98.30;;;;;;5091092;23;20493;-78
2021/06/30 08:44:00;;;;;;;38.50;30.37;;;20.60;98.30;;;;;;5091221;23;20537;-78
2021/06/30 08:46:03;;;;;;;46.50;35.07;;;20.70;98.30;;;;;;5091044;23;20486;-78
2021/06/30 08:48:10;;;;;;;40.30;32.10;;;20.70;98.30;;;;;;5091259;23;20461;-78
2021/06/30 08:50:13;;;;;;;43.77;31.90;;;20.60;98.30;;;;;;5091467;23;20880;-78
2021/06/30 08:52:16;;;;;;;37.13;29.27;;;20.60;98.30;;;;;;5089062;23;20441;-78
2021/06/30 08:54:23;;;;;;;38.13;30.47;;;20.50;98.30;;;;;;5091059;23;20459;-78
2021/06/30 08:56:31;;;;;;;38.93;30.40;;;20.50;98.30;;;;;;5097696;23;20431;-78
2021/06/30 08:58:34;;;;;;;44.30;30.80;;;20.40;98.30;;;;;;5090503;23;20741;-78
2021/06/30 09:00:37;;;;;;;41.07;30.90;;;20.30;98.30;;;;;;5089860;23;20427;-78
2021/06/30 09:02:42;;;;;;;44.77;34.63;;;20.20;98.30;;;;;;5092535;23;20467;-78
2021/06/30 09:04:46;;;;;;;48.73;32.67;;;20.10;98.30;;;;;;5093120;23;20754;-77
2021/06/30 09:06:50;;;;;;;41.17;31.87;;;20.00;98.30;;;;;;5093351;23;20433;-77
2021/06/30 09:09:01;;;;;;;49.90;31.20;;;20.00;98.30;;;;;;5093510;23;20434;-77
2021/06/30 09:11:11;;;;;;;47.17;31.87;;;19.90;98.30;;;;;;5093153;23;20474;-79
2021/06/30 09:13:21;;;;;;;50.67;34.13;;;19.90;98.30;;;;;;5093470;23;20450;-78
2021/06/30 09:15:28;;;;;;;46.70;32.37;;;19.90;98.30;;;;;;5093447;23;20490;-77
2021/06/30 09:17:30;;;;;;;44.43;30.90;;;19.90;98.30;;;;;;5093557;23;21166;-77
2021/06/30 09:20:07;;;;;;;47.20;33.83;;;20.00;98.30;;;;;;5093441;23;20430;-78
2021/06/30 09:22:09;;;;;;;41.60;31.30;;;20.00;98.30;;;;;;5034549;23;20458;-77
2021/06/30 09:24:18;;;;;;;50.37;33.90;;;20.10;98.30;;;;;;5092603;23;20461;-78
2021/06/30 09:26:21;;;;;;;43.33;30.97;;;20.20;98.30;;;;;;5092902;23;20411;-80
2021/06/30 09:28:26;;;;;;;43.80;31.40;;;20.30;98.30;;;;;;5100983;23;20822;-81
2021/06/30 09:30:28;;;;;;;45.47;30.43;;;20.40;98.30;;;;;;5092908;23;20792;-78
2021/06/30 09:32:31;;;;;;;39.87;29.67;;;20.50;98.30;;;;;;5092935;23;20435;-78
2021/06/30 09:34:34;;;;;;;43.23;30.93;;;20.60;98.30;;;;;;5092732;23;20482;-80
2021/06/30 09:36:47;;;;;;;38.13;30.37;;;20.80;98.30;;;;;;5092888;23;20932;-79
2021/06/30 09:38:51;;;;;;;40.00;30.13;;;20.90;98.30;;;;;;5092769;23;20892;-77
2021/06/30 09:40:53;;;;;;;38.30;28.97;;;21.10;98.30;;;;;;5092408;23;20426;-78
2021/06/30 09:42:56;;;;;;;36.17;29.70;;;21.30;98.30;;;;;;5092711;23;20439;-77
2021/06/30 09:45:12;;;;;;;37.93;30.73;;;21.30;98.30;;;;;;5092680;23;20518;-78
2021/06/30 09:47:15;;;;;;;33.20;28.97;;;21.40;98.30;;;;;;5092855;23;20461;-77
2021/06/30 09:49:21;;;;;;;36.20;30.23;;;21.40;98.30;;;;;;5092906;23;20431;-79
2021/06/30 09:51:29;;;;;;;36.63;30.23;;;21.40;98.30;;;;;;5092579;23;20438;-77
2021/06/30 09:53:36;;;;;;;39.40;30.37;;;21.50;98.30;;;;;;5092578;23;20468;-78
2021/06/30 09:55:40;;;;;;;33.47;27.47;;;21.50;98.30;;;;;;5092620;23;20415;-78
2021/06/30 09:57:45;;;;;;;37.13;29.90;;;21.60;98.30;;;;;;5092446;23;20994;-79
2021/06/30 09:59:49;;;;;;;39.37;31.33;;;21.60;98.30;;;;;;5092534;23;20415;-77
2021/06/30 10:01:57;;;;;;;38.40;31.50;;;21.70;98.30;;;;;;5092451;23;20438;-78
2021/06/30 10:04:02;;;;;;;33.27;28.00;;;21.80;98.30;;;;;;5092106;23;20450;-79
2021/06/30 10:06:24;;;;;;;37.10;30.00;;;21.90;98.30;;;;;;5091858;23;20454;-78
2021/06/30 10:08:38;;;;;;;34.13;28.23;;;21.80;98.30;;;;;;5092556;23;20449;-78
2021/06/30 10:10:48;;;;;;;37.23;28.80;;;21.80;98.30;;;;;;5092198;23;20431;-78
2021/06/30 10:12:51;;;;;;;34.03;28.70;;;21.90;98.30;;;;;;5092197;23;20434;-78
2021/06/30 10:14:55;;;;;;;32.67;28.70;;;21.90;98.30;;;;;;5092139;23;20486;-80
2021/06/30 10:16:59;;;;;;;36.97;30.27;;;21.90;98.30;;;;;;5092202;23;20908;-77
2021/06/30 10:19:02;;;;;;;37.47;30.23;;;22.00;98.30;;;;;;5091686;23;20761;-81
2021/06/30 10:21:05;;;;;;;33.73;28.87;;;22.00;98.30;;;;;;5100332;23;20423;-79
2021/06/30 10:23:08;;;;;;;33.40;28.80;;;22.00;98.30;;;;;;5092333;23;20505;-78
2021/06/30 10:25:12;;;;;;;32.10;28.60;;;22.00;98.30;;;;;;5092041;23;20554;-79
2021/06/30 10:27:16;;;;;;;33.80;29.43;;;22.00;98.30;;;;;;5092078;23;20434;-78
2021/06/30 10:29:23;;;;;;;35.43;29.10;;;21.90;98.30;;;;;;5092310;23;20434;-83
2021/06/30 10:31:26;;;;;;;34.13;29.37;;;21.90;98.30;;;;;;5100589;23;20432;-78
2021/06/30 10:33:31;;;;;;;35.73;28.87;;;22.00;98.30;;;;;;5092023;23;20447;-78
2021/06/30 10:35:46;;;;;;;33.60;29.50;;;21.90;98.30;;;;;;5092315;23;20415;-78
2021/06/30 10:37:52;;;;;;;35.80;23.50;;;21.90;98.30;;;;;;5091895;23;20419;-77
2021/06/30 10:39:56;;;;;;;30.17;24.13;;;21.80;98.30;;;;;;5091840;23;20415;-77
2021/06/30 10:41:59;;;;;;;28.60;24.87;;;21.80;98.30;;;;;;5092166;23;20430;-78
2021/06/30 10:44:11;;;;;;;25.50;22.77;;;21.70;98.30;;;;;;5092450;23;20451;-78
2021/06/30 10:46:31;;;;;;;26.17;23.03;;;21.80;98.30;;;;;;5092165;23;20425;-77
2021/06/30 10:48:34;;;;;;;25.83;21.60;;;21.70;98.30;;;;;;5090488;23;20505;-77
2021/06/30 10:50:47;;;;;;;23.33;20.60;;;21.70;98.30;;;;;;5091905;23;20411;-77
2021/06/30 10:52:50;;;;;;;24.30;21.80;;;21.70;98.30;;;;;;5092072;23;20812;-80
2021/06/30 10:54:53;;;;;;;26.47;21.70;;;21.70;98.30;;;;;;5092393;23;20431;-79
2021/06/30 10:57:24;;;;;;;28.47;22.43;;;21.70;98.30;;;;;;5092000;23;20438;-78
2021/06/30 10:59:28;;;;;;;26.90;22.37;;;21.70;98.30;;;;;;5092348;23;20415;-78
2021/06/30 11:01:31;;;;;;;23.20;20.60;;;21.60;98.30;;;;;;5092452;23;20909;-77
2021/06/30 11:03:36;;;;;;;23.90;21.40;;;21.60;98.30;;;;;;5092453;23;20470;-77
2021/06/30 11:05:39;;;;;;;22.00;19.70;;;21.60;98.30;;;;;;5092033;23;20427;-77
2021/06/30 11:07:43;;;;;;;24.13;19.03;;;21.50;98.30;;;;;;5092043;23;20757;-78
2021/06/30 11:09:46;;;;;;;21.10;18.70;;;21.60;98.30;;;;;;5092418;23;20430;-77
2021/06/30 11:12:00;;;;;;;20.90;18.40;;;21.70;98.30;;;;;;5092161;23;20447;-78
2021/06/30 11:14:05;;;;;;;21.40;18.27;;;21.80;98.30;;;;;;5091822;23;20538;-77
2021/06/30 11:16:11;;;;;;;20.43;17.90;;;21.90;98.30;;;;;;5099847;23;20501;-78
2021/06/30 11:18:43;;;;;;;20.53;17.20;;;22.00;98.30;;;;;;5100037;23;20987;-78
2021/06/30 11:20:48;;;;;;;20.73;17.57;;;22.20;98.30;;;;;;5079232;23;20756;-78
2021/06/30 11:23:18;;;;;;;20.27;18.07;;;22.40;98.30;;;;;;5091714;23;20419;-78
2021/06/30 11:25:26;;;;;;;20.07;18.00;;;22.70;98.30;;;;;;5091864;23;20415;-78
2021/06/30 11:27:41;;;;;;;18.43;16.63;;;22.90;98.30;;;;;;5092010;23;20406;-78
2021/06/30 11:29:46;;;;;;;17.37;15.43;;;22.90;98.30;;;;;;5092136;23;20419;-77
2021/06/30 11:31:50;;;;;;;18.07;16.27;;;22.80;98.30;;;;;;5092160;23;20447;-79
2021/06/30 11:34:06;;;;;;;19.10;17.10;;;22.90;98.30;;;;;;5091689;23;20501;-78
2021/06/30 11:36:10;;;;;;;18.33;16.47;;;22.80;98.30;;;;;;5091972;23;20419;-78
2021/06/30 11:38:16;;;;;;;18.30;15.23;;;23.00;98.30;;;;;;5091994;23;20434;-77
2021/06/30 11:40:24;;;;;;;20.77;17.70;;;23.10;98.30;;;;;;5092144;23;20903;-81
2021/06/30 11:42:31;;;;;;;19.57;16.57;;;23.00;98.30;;;;;;5100369;23;20400;-77
2021/06/30 11:44:36;;;;;;;21.10;17.07;;;22.90;98.30;;;;;;5092104;23;20746;-78
2021/06/30 11:46:39;;;;;;;17.13;15.43;;;22.90;98.30;;;;;;5091783;23;20434;-80
2021/06/30 11:48:50;;;;;;;17.63;15.73;;;23.10;98.30;;;;;;5091816;23;20919;-78
2021/06/30 11:50:56;;;;;;;18.20;16.50;;;23.40;98.30;;;;;;5092599;23;20473;-78
2021/06/30 11:53:00;;;;;;;16.87;14.97;;;23.60;98.30;;;;;;5093422;23;20546;-78
2021/06/30 11:55:06;;;;;;;17.10;15.10;;;23.60;98.30;;;;;;5093507;23;20411;-78
2021/06/30 11:57:09;;;;;;;16.43;14.70;;;23.70;98.30;;;;;;5093274;23;20462;-79
2021/06/30 11:59:18;;;;;;;18.97;15.40;;;24.00;98.30;;;;;;5092811;23;20430;-78
2021/06/30 12:01:27;;;;;;;16.13;14.50;;;24.20;98.30;;;;;;5093350;23;20506;-79
2021/06/30 12:03:31;;;;;;;17.23;15.37;;;24.20;98.30;;;;;;5093014;23;20501;-77
2021/06/30 12:05:40;;;;;;;17.90;16.00;;;24.20;98.30;;;;;;5092912;23;20438;-77
2021/06/30 12:07:44;;;;;;;16.23;14.63;;;24.20;98.30;;;;;;5093014;23;20523;-77
2021/06/30 12:09:47;;;;;;;17.20;15.57;;;24.10;98.30;;;;;;5093051;23;20802;-77
2021/06/30 12:11:52;;;;;;;16.50;14.83;;;24.00;98.30;;;;;;5093336;23;20446;-77
2021/06/30 12:14:09;;;;;;;21.27;19.07;;;24.10;98.30;;;;;;5093432;23;20944;-77
2021/06/30 12:16:12;;;;;;;25.47;22.87;;;24.10;98.30;;;;;;5092915;23;20419;-81
2021/06/30 12:18:23;;;;;;;17.67;15.90;;;24.30;98.30;;;;;;5093085;23;20438;-77
2021/06/30 12:20:27;;;;;;;16.97;15.27;;;24.50;98.30;;;;;;5093173;23;20477;-77
2021/06/30 12:22:34;;;;;;;17.13;15.23;;;24.50;98.30;;;;;;5093307;23;20426;-77
2021/06/30 12:24:40;;;;;;;15.80;14.30;;;24.30;98.30;;;;;;5092804;23;20980;-78
2021/06/30 12:27:03;;;;;;;14.83;13.43;;;24.20;98.30;;;;;;5101343;23;20422;-77
2021/06/30 12:29:16;;;;;;;16.30;14.70;;;24.30;98.30;;;;;;5093261;23;20446;-78
2021/06/30 12:31:20;;;;;;;15.83;14.23;;;24.40;98.30;;;;;;5101105;23;20721;-77
2021/06/30 12:33:23;;;;;;;17.33;15.53;;;24.20;98.30;;;;;;5093064;23;20454;-77
2021/06/30 12:35:29;;;;;;;18.60;16.70;;;23.80;98.30;;;;;;5093403;23;21169;-80
2021/06/30 12:37:34;;;;;;;18.73;16.83;;;23.60;98.30;;;;;;5093824;23;21057;-77
2021/06/30 12:39:39;;;;;;;18.23;16.23;;;23.40;98.30;;;;;;5093376;23;20419;-77
2021/06/30 12:41:51;;;;;;;19.63;17.33;;;23.20;98.30;;;;;;5101611;23;20403;-77
2021/06/30 12:44:00;;;;;;;19.90;17.67;;;23.00;98.30;;;;;;5093196;23;20461;-78
2021/06/30 12:46:03;;;;;;;18.60;16.60;;;23.20;98.30;;;;;;5093431;23;20505;-79
2021/06/30 12:48:08;;;;;;;17.73;15.50;;;23.20;98.30;;;;;;5093201;23;20489;-77
2021/06/30 12:50:12;;;;;;;19.13;17.13;;;23.00;98.30;;;;;;5093110;23;20482;-78
2021/06/30 12:52:22;;;;;;;22.90;19.50;;;22.90;98.30;;;;;;5101670;23;20476;-77
2021/06/30 12:54:27;;;;;;;19.53;16.77;;;23.00;98.30;;;;;;5093240;23;20500;-78
2021/06/30 12:56:34;;;;;;;16.40;14.30;;;23.20;98.30;;;;;;5093533;23;20431;-78
2021/06/30 12:58:40;;;;;;;17.27;14.60;;;23.30;98.30;;;;;;5101288;23;20423;-76
2021/06/30 13:00:56;;;;;;;16.87;15.17;;;23.20;98.30;;;;;;5093403;23;20411;-78
2021/06/30 13:03:18;;;;;;;19.23;15.40;;;23.40;98.30;;;;;;5102057;23;20435;-77
2021/06/30 13:05:24;;;;;;;16.47;14.83;;;23.20;98.30;;;;;;5093725;23;20876;-77
2021/06/30 13:07:38;;;;;;;14.37;12.97;;;23.20;98.30;;;;;;5093508;23;20497;-77
2021/06/30 13:09:42;;;;;;;15.47;13.83;;;23.20;98.30;;;;;;5093456;23;20477;-77
2021/06/30 13:11:47;;;;;;;15.10;13.40;;;23.40;98.30;;;;;;5092898;23;20426;-77
2021/06/30 13:14:05;;;;;;;15.50;12.83;;;23.60;98.30;;;;;;5093046;23;20777;-77
2021/06/30 13:16:10;;;;;;;15.10;13.50;;;23.70;98.30;;;;;;5093079;23;20419;-77
2021/06/30 13:18:18;;;;;;;14.60;13.13;;;23.80;98.30;;;;;;5092910;23;20419;-77
2021/06/30 13:20:22;;;;;;;14.70;13.20;;;23.80;98.30;;;;;;5101402;23;20449;-77
2021/06/30 13:22:28;;;;;;;15.47;13.80;;;23.80;98.30;;;;;;5101340;23;20425;-77
2021/06/30 13:34:19;;;;;;;15.30;13.05;;;22.90;98.30;;;;;;5065390;23;20450;-78
2021/06/30 13:36:31;;;;;;;16.80;13.50;;;22.80;98.30;;;;;;5093363;23;20407;-77
2021/06/30 13:38:37;;;;;;;17.77;13.07;;;22.60;98.30;;;;;;5093498;23;20438;-78
2021/06/30 13:40:42;;;;;;;18.00;13.03;;;22.40;98.30;;;;;;5092937;23;20458;-79
2021/06/30 13:42:46;;;;;;;18.67;13.27;;;22.40;98.30;;;;;;5093040;23;20418;-77
2021/06/30 13:44:58;;;;;;;17.57;14.90;;;22.30;98.30;;;;;;5093122;23;20446;-77
2021/06/30 13:47:01;;;;;;;15.90;14.20;;;22.20;98.30;;;;;;5093088;23;20433;-77
2021/06/30 13:49:04;;;;;;;17.63;13.93;;;22.20;98.30;;;;;;5093262;23;20514;-77
2021/06/30 13:51:12;;;;;;;18.87;13.10;;;22.10;98.30;;;;;;5093064;23;20511;-81
2021/06/30 13:53:16;;;;;;;16.63;13.90;;;22.00;98.30;;;;;;5101155;23;20449;-77
2021/06/30 13:55:24;;;;;;;21.23;15.57;;;21.90;98.30;;;;;;5092734;23;20447;-77
2021/06/30 13:57:27;;;;;;;19.90;14.47;;;21.70;98.30;;;;;;5093192;23;20422;-77
2021/06/30 13:59:30;;;;;;;20.13;16.17;;;21.60;98.30;;;;;;5093067;23;20538;-77
2021/06/30 14:01:33;;;;;;;23.97;17.27;;;21.50;98.30;;;;;;5093149;23;20433;-78
2021/06/30 14:03:36;;;;;;;25.10;19.90;;;21.60;98.30;;;;;;5093379;23;20450;-79
2021/06/30 14:05:39;;;;;;;19.53;15.80;;;21.70;98.30;;;;;;5100454;23;20450;-77
2021/06/30 14:07:44;;;;;;;21.20;16.87;;;21.80;98.30;;;;;;5092604;23;20458;-78
2021/06/30 14:09:47;;;;;;;24.20;16.00;;;21.70;98.30;;;;;;5093141;23;20430;-78
2021/06/30 14:11:51;;;;;;;17.33;14.83;;;21.50;98.30;;;;;;5092824;23;20518;-79
2021/06/30 14:13:54;;;;;;;18.07;16.10;;;21.40;98.30;;;;;;5092614;23;20451;-78
2021/06/30 14:15:57;;;;;;;18.63;16.30;;;21.30;98.30;;;;;;5092963;23;20431;-79
2021/06/30 14:18:00;;;;;;;22.27;18.50;;;21.20;98.30;;;;;;5092592;23;21088;-78
2021/06/30 14:20:04;;;;;;;19.87;17.03;;;21.10;98.30;;;;;;5092270;23;20431;-78
2021/06/30 14:22:07;;;;;;;22.90;17.73;;;21.10;98.30;;;;;;5092359;23;20430;-79
2021/06/30 14:24:11;;;;;;;22.87;18.30;;;21.10;98.30;;;;;;5092506;23;20533;-78
2021/06/30 14:26:14;;;;;;;21.43;17.67;;;21.10;98.30;;;;;;5100976;23;20824;-78
2021/06/30 14:28:17;;;;;;;20.03;17.90;;;21.20;98.30;;;;;;5100438;23;20427;-77
2021/06/30 14:30:20;;;;;;;23.23;17.67;;;21.20;98.30;;;;;;5092496;23;20523;-80
2021/06/30 14:32:26;;;;;;;22.70;19.87;;;21.20;98.30;;;;;;5091875;23;20431;-79
2021/06/30 14:34:30;;;;;;;24.10;18.83;;;21.30;98.30;;;;;;5084000;23;20535;-77
2021/06/30 14:36:33;;;;;;;24.07;19.90;;;21.20;98.30;;;;;;5067967;23;20735;-80
2021/06/30 14:38:38;;;;;;;26.20;19.73;;;21.00;98.30;;;;;;5075106;23;20496;-77
2021/06/30 14:40:43;;;;;;;28.27;20.10;;;20.80;98.30;;;;;;5068368;23;20959;-82
2021/06/30 14:42:46;;;;;;;25.10;18.53;;;20.60;98.30;;;;;;5068465;23;20790;-77
2021/06/30 14:44:49;;;;;;;26.20;20.57;;;20.50;98.30;;;;;;5068403;23;20833;-80
2021/06/30 14:46:52;;;;;;;26.00;19.43;;;20.40;98.30;;;;;;5068434;23;20435;-78
2021/06/30 14:48:55;;;;;;;30.97;22.23;;;20.30;98.30;;;;;;5068180;23;20452;-79
2021/06/30 14:50:59;;;;;;;25.70;20.40;;;20.30;98.30;;;;;;5068283;23;20442;-77
2021/06/30 14:53:02;;;;;;;28.37;21.30;;;20.30;98.30;;;;;;5076662;23;20577;-78
2021/06/30 14:55:07;;;;;;;24.80;19.80;;;20.20;98.30;;;;;;5068105;23;20462;-78
2021/06/30 14:57:12;;;;;;;23.43;19.43;;;20.20;98.30;;;;;;5068537;23;20431;-77
2021/06/30 14:59:15;;;;;;;27.87;22.90;;;20.20;98.30;;;;;;5068615;23;20434;-77
2021/06/30 15:01:18;;;;;;;33.63;20.67;;;20.20;98.30;;;;;;5067879;23;20436;-78
2021/06/30 15:03:21;;;;;;;27.23;22.47;;;20.20;98.30;;;;;;5067543;23;20428;-79
2021/06/30 15:05:24;;;;;;;26.47;20.50;;;20.20;98.30;;;;;;5068142;23;20765;-78
2021/06/30 15:07:27;;;;;;;23.70;20.03;;;20.20;98.30;;;;;;5068742;23;20969;-79
2021/06/30 15:09:38;;;;;;;29.90;20.70;;;20.10;98.30;;;;;;5068285;23;20416;-78
2021/06/30 15:11:41;;;;;;;23.00;18.90;;;20.20;98.30;;;;;;5068152;23;20436;-77
2021/06/30 15:13:46;;;;;;;22.60;20.10;;;20.20;98.30;;;;;;5067774;23;20532;-77
2021/06/30 15:15:48;;;;;;;24.93;20.80;;;20.10;98.30;;;;;;5068951;23;20790;-77
2021/06/30 15:17:52;;;;;;;28.37;20.70;;;20.10;98.30;;;;;;5069112;23;20432;-77
2021/06/30 15:19:54;;;;;;;25.87;20.87;;;20.10;98.30;;;;;;5068232;23;20746;-78
2021/06/30 15:21:57;;;;;;;27.23;20.57;;;20.20;98.30;;;;;;5068210;23;20438;-79
2021/06/30 15:24:00;;;;;;;25.30;19.87;;;20.20;98.30;;;;;;5067977;23;20428;-80
2021/06/30 15:26:05;;;;;;;27.80;19.53;;;20.20;98.30;;;;;;5067680;23;20435;-77
2021/06/30 15:28:08;;;;;;;24.40;21.07;;;20.20;98.30;;;;;;5068162;23;20440;-78
2021/06/30 15:30:14;;;;;;;22.93;20.40;;;20.20;98.30;;;;;;5068048;23;20793;-79
2021/06/30 15:32:17;;;;;;;22.47;19.43;;;20.30;98.30;;;;;;5067809;23;20446;-78
2021/06/30 15:34:21;;;;;;;22.87;19.83;;;20.40;98.30;;;;;;5075003;23;20502;-78
2021/06/30 15:36:24;;;;;;;20.27;18.17;;;20.50;98.30;;;;;;5075676;23;20427;-78
2021/06/30 15:38:27;;;;;;;34.70;28.60;;;20.60;98.30;;;;;;5067992;23;20428;-77
2021/06/30 15:40:30;;;;;;;47.70;39.33;;;20.70;98.30;;;;;;5067942;23;20431;-78
2021/06/30 15:42:33;;;;;;;20.73;18.63;;;20.70;98.30;;;;;;5076264;23;20432;-78
2021/06/30 15:44:37;;;;;;;21.30;18.60;;;20.70;98.30;;;;;;5076166;23;20436;-78
2021/06/30 15:46:42;;;;;;;18.80;16.83;;;20.60;98.30;;;;;;5068246;23;20436;-81
2021/06/30 15:48:46;;;;;;;19.43;17.43;;;20.40;98.30;;;;;;5068333;23;20428;-77
2021/06/30 15:50:49;;;;;;;19.10;17.20;;;20.20;98.30;;;;;;5068352;23;20443;-79
2021/06/30 15:52:52;;;;;;;19.37;17.37;;;20.10;98.30;;;;;;5076462;23;20420;-78
2021/06/30 15:54:55;;;;;;;19.10;17.20;;;20.00;98.30;;;;;;5068402;23;20885;-81
2021/06/30 15:56:59;;;;;;;18.67;16.77;;;19.90;98.30;;;;;;5068481;23;20432;-77
2021/06/30 15:59:02;;;;;;;18.93;17.03;;;19.70;98.30;;;;;;5068202;23;20519;-77
2021/06/30 16:01:05;;;;;;;21.43;17.23;;;19.70;98.30;;;;;;5068623;23;20454;-77
2021/06/30 16:03:10;;;;;;;20.00;18.10;;;19.60;98.30;;;;;;5068284;23;20522;-78
2021/06/30 16:05:14;;;;;;;21.10;18.90;;;19.60;98.30;;;;;;5067817;23;21053;-77
2021/06/30 16:07:17;;;;;;;22.00;19.70;;;19.50;98.30;;;;;;5076140;23;20969;-77
2021/06/30 16:09:20;;;;;;;22.87;19.20;;;19.40;98.30;;;;;;5075808;23;21018;-77
2021/06/30 16:11:23;;;;;;;22.23;19.80;;;19.40;98.30;;;;;;5068055;23;20747;-78
2021/06/30 16:13:26;;;;;;;22.83;20.30;;;19.40;98.30;;;;;;5067839;23;20428;-77
2021/06/30 16:15:29;;;;;;;22.97;20.57;;;19.40;98.30;;;;;;5067526;23;20451;-81
2021/06/30 16:17:52;;;;;;;22.40;20.03;;;19.50;98.30;;;;;;5067387;23;20423;-77
2021/06/30 16:19:56;;;;;;;23.23;20.40;;;19.50;98.30;;;;;;5067973;23;20459;-79
2021/06/30 16:21:59;;;;;;;23.77;21.30;;;19.60;98.30;;;;;;5067607;23;20503;-77
2021/06/30 16:24:02;;;;;;;22.27;20.07;;;19.70;98.30;;;;;;5067631;23;20432;-78
2021/06/30 16:26:05;;;;;;;24.10;19.57;;;19.80;98.30;;;;;;5067574;23;20523;-77
2021/06/30 16:28:08;;;;;;;24.10;20.60;;;20.00;98.30;;;;;;5075230;23;20431;-78
2021/06/30 16:30:16;;;;;;;21.80;19.30;;;20.10;98.30;;;;;;5067879;23;20443;-77
2021/06/30 16:32:19;;;;;;;25.23;18.90;;;20.20;98.30;;;;;;5067699;23;20415;-77
2021/06/30 16:34:22;;;;;;;23.00;18.17;;;20.20;98.30;;;;;;5067386;23;20498;-77
2021/06/30 16:36:27;;;;;;;22.80;18.33;;;20.20;98.30;;;;;;5068074;23;20436;-77
2021/06/30 16:38:29;;;;;;;22.50;17.67;;;20.00;98.30;;;;;;5069497;23;20438;-77
2021/06/30 16:40:33;;;;;;;20.50;17.80;;;19.80;98.30;;;;;;5069102;23;20438;-77
2021/06/30 16:42:36;;;;;;;21.33;17.07;;;19.80;98.30;;;;;;5068592;23;20436;-78
2021/06/30 16:44:39;;;;;;;20.50;17.47;;;19.70;98.30;;;;;;5068458;23;20451;-79
2021/06/30 16:46:43;;;;;;;22.73;16.53;;;19.80;98.30;;;;;;5069061;23;20432;-79
2021/06/30 16:48:46;;;;;;;18.93;16.70;;;19.80;98.30;;;;;;5069496;23;20483;-79
2021/06/30 16:50:49;;;;;;;21.40;16.57;;;19.70;98.30;;;;;;5069766;23;20427;-80
2021/06/30 16:52:56;;;;;;;21.63;16.90;;;19.60;98.30;;;;;;5068762;23;20495;-80
2021/06/30 16:54:59;;;;;;;20.70;16.63;;;19.60;98.30;;;;;;5068133;23;20944;-79
2021/06/30 16:57:02;;;;;;;20.30;16.70;;;19.70;98.30;;;;;;5076360;23;20519;-79
2021/06/30 16:59:06;;;;;;;18.43;16.50;;;19.60;98.30;;;;;;5068342;23;20432;-79
2021/06/30 17:01:09;;;;;;;19.77;16.50;;;19.50;98.30;;;;;;5068366;23;20432;-82
2021/06/30 17:03:12;;;;;;;19.80;17.47;;;19.50;98.30;;;;;;5068134;23;20920;-79
2021/06/30 17:05:15;;;;;;;21.70;16.20;;;19.50;98.30;;;;;;5076522;23;20810;-83
2021/06/30 17:07:18;;;;;;;21.97;17.40;;;19.40;98.30;;;;;;5077026;23;20420;-79
2021/06/30 17:09:22;;;;;;;25.40;18.37;;;19.40;98.30;;;;;;5068869;23;20432;-78
2021/06/30 17:11:25;;;;;;;20.67;17.87;;;19.40;98.30;;;;;;5068838;23;20523;-78
2021/06/30 17:13:28;;;;;;;22.33;17.97;;;19.40;98.30;;;;;;5068801;23;20428;-79
2021/06/30 17:15:31;;;;;;;22.27;17.87;;;19.40;98.30;;;;;;5068832;23;20463;-79
2021/06/30 17:17:34;;;;;;;22.40;17.50;;;19.30;98.30;;;;;;5069151;23;20466;-78
2021/06/30 17:19:37;;;;;;;23.93;19.20;;;19.20;98.30;;;;;;5070313;23;20436;-79
2021/06/30 17:21:40;;;;;;;23.73;18.27;;;19.10;98.30;;;;;;5080530;23;20424;-79
2021/06/30 17:23:49;;;;;;;26.90;18.00;;;18.90;98.30;;;;;;5077481;23;20439;-80
2021/06/30 17:26:14;;;;;;;22.90;17.93;;;18.90;98.30;;;;;;5077494;23;20404;-79
2021/06/30 17:28:27;;;;;;;24.40;19.00;;;18.80;98.30;;;;;;5076905;23;20426;-79
2021/06/30 17:30:35;;;;;;;23.57;18.30;;;18.70;98.30;;;;;;5076591;23;20404;-79
2021/06/30 17:32:51;;;;;;;24.50;18.60;;;18.70;98.30;;;;;;5067796;23;20435;-81
2021/06/30 17:34:55;;;;;;;25.50;20.10;;;18.70;98.30;;;;;;5076013;23;20464;-79
2021/06/30 17:36:58;;;;;;;25.53;20.43;;;18.70;98.30;;;;;;5076696;23;20428;-80